Time;durP1;ratioP1;P1;durP2;ratioP2;P2;SDS_P1;SDS_P2;PMS_P1;PMS_P2;Temp;Humidity;BMP_temperature;BMP_pressure;BME280_temperature;BME280_humidity;BME280_pressure;Samples;Min_cycle;Max_cycle;Signal;HPM_P1;HPM_P2
2022/09/07 00:00:51;;;;;;;6.30;4.03;;;19.70;99.90;;;;;;4944320;28;20051;-83
2022/09/07 00:03:17;;;;;;;5.75;3.25;;;19.70;99.90;;;;;;4927388;28;20047;-84
2022/09/07 00:05:45;;;;;;;6.72;1.80;;;19.60;99.90;;;;;;4932614;28;20050;-84
2022/09/07 00:08:12;;;;;;;7.05;1.60;;;19.50;99.90;;;;;;4943669;28;20804;-83
2022/09/07 00:10:38;;;;;;;2.85;1.20;;;19.40;99.90;;;;;;4943505;28;20373;-84
2022/09/07 00:13:05;;;;;;;4.80;1.10;;;19.20;99.90;;;;;;4933962;28;20046;-84
2022/09/07 00:15:32;;;;;;;4.30;1.10;;;18.60;99.90;;;;;;4931767;28;20537;-83
2022/09/07 00:17:58;;;;;;;5.38;1.30;;;19.10;99.90;;;;;;4942024;28;20050;-84
2022/09/07 00:20:29;;;;;;;4.65;1.52;;;18.90;99.90;;;;;;4962883;28;20105;-83
2022/09/07 00:22:57;;;;;;;6.28;1.48;;;19.00;99.90;;;;;;4929971;28;20859;-85
2022/09/07 00:25:23;;;;;;;4.88;1.40;;;18.90;99.90;;;;;;4943416;28;20559;-84
2022/09/07 00:27:49;;;;;;;6.75;1.58;;;18.80;99.90;;;;;;4929968;28;20049;-83
2022/09/07 00:30:17;;;;;;;9.10;1.80;;;18.80;99.90;;;;;;4929137;28;20278;-83
2022/09/07 00:32:45;;;;;;;5.00;1.60;;;18.80;99.90;;;;;;4924961;28;20071;-84
2022/09/07 00:35:13;;;;;;;6.85;1.85;;;18.80;99.90;;;;;;4931845;28;20046;-84
2022/09/07 00:37:39;;;;;;;8.07;1.88;;;18.80;99.90;;;;;;4942940;28;20170;-83
2022/09/07 00:40:05;;;;;;;7.53;1.73;;;18.80;99.90;;;;;;4935667;28;20492;-83
2022/09/07 00:42:31;;;;;;;9.32;1.95;;;18.70;99.90;;;;;;4945691;28;20160;-85
2022/09/07 00:45:10;;;;;;;7.10;1.63;;;18.70;99.90;;;;;;4950358;28;20503;-83
2022/09/07 00:48:03;;;;;;;6.60;1.65;;;18.70;99.90;;;;;;4948090;28;20606;-84
2022/09/07 00:50:52;;;;;;;7.55;1.77;;;18.70;99.90;;;;;;4944154;28;20149;-85
2022/09/07 00:53:25;;;;;;;10.73;2.33;;;18.60;99.90;;;;;;4925051;28;20140;-84
2022/09/07 00:55:52;;;;;;;8.45;1.92;;;18.60;99.90;;;;;;4943788;28;20165;-83
2022/09/07 00:58:20;;;;;;;7.75;1.75;;;18.60;99.90;;;;;;4930074;28;20181;-83
2022/09/07 01:00:48;;;;;;;10.15;2.10;;;18.50;99.90;;;;;;4930270;28;20054;-83
2022/09/07 01:03:24;;;;;;;7.97;1.83;;;18.50;99.90;;;;;;4946351;28;20182;-83
2022/09/07 01:06:20;;;;;;;8.65;2.13;;;18.50;99.90;;;;;;4942576;28;20105;-83
2022/09/07 01:08:48;;;;;;;7.45;1.60;;;18.40;99.90;;;;;;4926174;28;20153;-83
2022/09/07 01:11:19;;;;;;;10.70;2.08;;;18.40;99.90;;;;;;4922774;28;20132;-84
2022/09/07 01:13:46;;;;;;;5.65;1.48;;;18.40;99.90;;;;;;4958489;28;20107;-83
2022/09/07 01:16:15;;;;;;;8.48;2.08;;;18.40;99.90;;;;;;4941396;28;20067;-85
2022/09/07 01:18:45;;;;;;;7.25;1.80;;;18.40;99.90;;;;;;4927777;28;20133;-83
2022/09/07 01:21:26;;;;;;;6.75;1.80;;;18.40;99.90;;;;;;4930508;28;20097;-84
2022/09/07 01:24:15;;;;;;;10.30;2.22;;;18.40;99.90;;;;;;4944157;28;20050;-83
2022/09/07 01:26:47;;;;;;;8.57;1.90;;;18.40;99.90;;;;;;4948381;28;20061;-83
2022/09/07 01:29:20;;;;;;;6.82;1.90;;;18.40;99.90;;;;;;4948028;28;20051;-85
2022/09/07 01:32:11;;;;;;;6.75;1.80;;;18.40;99.90;;;;;;4933359;28;20054;-84
2022/09/07 01:34:38;;;;;;;9.68;2.10;;;18.40;99.90;;;;;;4947363;28;20249;-83
2022/09/07 01:37:22;;;;;;;8.77;2.58;;;18.40;99.90;;;;;;4914766;28;20481;-83
2022/09/07 01:40:43;;;;;;;6.10;1.88;;;18.40;99.90;;;;;;4935981;28;20078;-84
2022/09/07 01:43:16;;;;;;;11.00;2.17;;;18.40;99.90;;;;;;4879008;28;20432;-83
2022/09/07 01:45:43;;;;;;;7.97;1.85;;;18.30;99.90;;;;;;4931062;28;20519;-84
2022/09/07 01:48:13;;;;;;;8.32;2.08;;;18.30;99.90;;;;;;4945390;28;20043;-83
2022/09/07 01:51:01;;;;;;;4.53;1.42;;;18.20;99.90;;;;;;4949612;28;20109;-83
2022/09/07 01:53:49;;;;;;;5.78;1.90;;;18.20;99.90;;;;;;4932682;28;20054;-86
2022/09/07 01:56:22;;;;;;;6.15;1.63;;;18.20;99.90;;;;;;4948608;28;20087;-85
2022/09/07 01:58:59;;;;;;;9.25;1.92;;;18.20;99.90;;;;;;4945073;28;20050;-84
2022/09/07 02:02:02;;;;;;;4.65;1.50;;;18.20;99.90;;;;;;4948294;28;20061;-83
2022/09/07 02:04:42;;;;;;;3.35;1.30;;;18.20;99.90;;;;;;4913520;28;20054;-83
2022/09/07 02:07:27;;;;;;;5.43;1.20;;;18.10;99.90;;;;;;4934496;28;20050;-83
2022/09/07 02:09:57;;;;;;;3.15;1.00;;;18.10;99.90;;;;;;4964103;28;20061;-83
2022/09/07 02:12:39;;;;;;;4.53;1.05;;;18.00;99.90;;;;;;4947324;28;20686;-83
2022/09/07 02:15:21;;;;;;;2.35;1.20;;;18.00;99.90;;;;;;4946345;28;20121;-83
2022/09/07 02:18:00;;;;;;;2.78;0.98;;;18.00;99.90;;;;;;4936388;28;20538;-83
2022/09/07 02:20:33;;;;;;;3.28;1.48;;;18.00;99.90;;;;;;4933787;28;20042;-83
2022/09/07 02:23:03;;;;;;;2.83;1.10;;;18.00;99.90;;;;;;4931149;28;20079;-83
2022/09/07 02:25:36;;;;;;;3.55;1.20;;;18.00;99.90;;;;;;4930093;28;20051;-84
2022/09/07 02:28:13;;;;;;;2.72;1.02;;;18.00;99.90;;;;;;4947092;28;20042;-83
2022/09/07 02:30:39;;;;;;;3.28;1.00;;;18.00;99.90;;;;;;4930241;28;20065;-83
2022/09/07 02:33:05;;;;;;;4.80;1.23;;;18.00;99.90;;;;;;4944297;28;20043;-84
2022/09/07 02:35:32;;;;;;;3.95;1.55;;;18.00;99.90;;;;;;4912188;28;20094;-83
2022/09/07 02:38:08;;;;;;;3.22;1.10;;;18.00;99.90;;;;;;4933784;28;20129;-84
2022/09/07 02:40:34;;;;;;;4.00;1.10;;;18.00;99.90;;;;;;4961586;28;20051;-83
2022/09/07 02:43:06;;;;;;;3.50;1.02;;;17.70;99.90;;;;;;4931976;28;20042;-84
2022/09/07 02:45:49;;;;;;;4.72;1.10;;;18.10;99.90;;;;;;4946636;28;20489;-83
2022/09/07 02:48:59;;;;;;;2.58;1.40;;;18.10;99.90;;;;;;4931714;28;20113;-83
2022/09/07 02:51:54;;;;;;;4.85;1.00;;;18.10;99.90;;;;;;4943233;28;20047;-85
2022/09/07 02:55:10;;;;;;;2.72;1.00;;;18.10;99.90;;;;;;4928259;28;20496;-85
2022/09/07 02:57:55;;;;;;;3.65;0.90;;;18.10;99.90;;;;;;4911897;28;20094;-84
2022/09/07 03:00:24;;;;;;;3.45;0.98;;;18.10;99.90;;;;;;4944891;28;20054;-83
2022/09/07 03:03:02;;;;;;;3.58;1.25;;;18.10;99.90;;;;;;4917022;28;20054;-83
2022/09/07 03:05:55;;;;;;;2.33;1.00;;;18.10;99.90;;;;;;4933980;28;20051;-83
2022/09/07 03:08:35;;;;;;;2.67;1.00;;;18.10;99.90;;;;;;4931059;28;20049;-84
2022/09/07 03:11:04;;;;;;;3.53;0.90;;;18.00;99.90;;;;;;4931618;28;20057;-84
2022/09/07 03:13:31;;;;;;;2.35;1.05;;;18.00;99.90;;;;;;4947677;28;20503;-83
2022/09/07 03:15:57;;;;;;;4.07;1.00;;;18.00;99.90;;;;;;4947058;28;20065;-83
2022/09/07 03:18:24;;;;;;;3.10;1.10;;;18.00;99.90;;;;;;4964074;28;20042;-84
2022/09/07 03:20:50;;;;;;;3.03;1.25;;;17.90;99.90;;;;;;4930123;28;20055;-84
2022/09/07 03:23:16;;;;;;;4.35;1.45;;;17.90;99.90;;;;;;4899385;28;20057;-84
2022/09/07 03:25:42;;;;;;;2.70;1.30;;;17.90;99.90;;;;;;4942161;28;20050;-83
2022/09/07 03:28:08;;;;;;;3.70;1.50;;;17.90;99.90;;;;;;4945613;28;20039;-83
2022/09/07 03:30:33;;;;;;;3.40;1.58;;;17.90;99.90;;;;;;4929608;28;20126;-85
2022/09/07 03:32:59;;;;;;;4.97;1.63;;;17.90;99.90;;;;;;4928807;28;20047;-85
2022/09/07 03:35:25;;;;;;;4.68;1.90;;;17.90;99.90;;;;;;4912542;28;20555;-83
2022/09/07 03:37:53;;;;;;;5.55;1.80;;;17.90;99.90;;;;;;4949294;28;20047;-84
2022/09/07 03:40:19;;;;;;;4.57;1.83;;;17.90;99.90;;;;;;4945808;28;20054;-84
2022/09/07 03:42:49;;;;;;;3.85;1.95;;;17.90;99.90;;;;;;4926878;28;20051;-83
2022/09/07 03:45:17;;;;;;;8.50;2.00;;;17.90;99.90;;;;;;4946836;28;20050;-84
2022/09/07 03:47:43;;;;;;;6.50;1.85;;;17.90;99.90;;;;;;4912952;28;20050;-84
2022/09/07 03:50:09;;;;;;;5.53;1.77;;;17.80;99.90;;;;;;4928229;28;20579;-83
2022/09/07 03:52:35;;;;;;;5.57;1.80;;;17.80;99.90;;;;;;4948260;28;20085;-83
2022/09/07 03:55:01;;;;;;;5.30;1.83;;;17.80;99.90;;;;;;4933442;28;20062;-83
2022/09/07 03:57:26;;;;;;;7.13;1.83;;;17.80;99.90;;;;;;4927066;28;20058;-83
2022/09/07 03:59:55;;;;;;;5.00;2.10;;;17.70;99.90;;;;;;4931145;28;20470;-83
2022/09/07 04:02:20;;;;;;;5.07;2.10;;;17.70;99.90;;;;;;4934180;28;20043;-83
2022/09/07 04:04:46;;;;;;;6.18;1.88;;;17.70;99.90;;;;;;4931003;28;20043;-82
2022/09/07 04:07:13;;;;;;;5.13;2.15;;;17.70;99.90;;;;;;4942495;28;20569;-84
2022/09/07 04:09:38;;;;;;;4.43;1.98;;;17.60;99.90;;;;;;4957654;28;20047;-83
2022/09/07 04:12:04;;;;;;;4.25;2.00;;;17.60;99.90;;;;;;4933391;28;20404;-83
2022/09/07 04:14:34;;;;;;;6.63;2.30;;;17.60;99.90;;;;;;4936713;28;20105;-83
2022/09/07 04:17:03;;;;;;;6.25;2.00;;;17.60;99.90;;;;;;4944201;28;20113;-83
2022/09/07 04:19:31;;;;;;;5.45;2.20;;;17.50;99.90;;;;;;4947320;28;20671;-83
2022/09/07 04:22:02;;;;;;;7.45;2.38;;;17.50;99.90;;;;;;4928314;28;20046;-84
2022/09/07 04:24:28;;;;;;;5.07;2.17;;;17.50;99.90;;;;;;4944192;28;20182;-84
2022/09/07 04:26:56;;;;;;;4.22;1.60;;;17.50;99.90;;;;;;4947397;28;20407;-88
2022/09/07 04:29:45;;;;;;;3.75;2.00;;;17.50;99.90;;;;;;4929375;28;20043;-88
2022/09/07 04:32:15;;;;;;;3.70;1.90;;;17.50;99.90;;;;;;4952285;28;20050;-88
2022/09/07 04:35:00;;;;;;;;;;;;;;;;;;;;;
2022/09/07 04:37:56;;;;;;;;;;;;;;;;;;;;;
2022/09/07 04:40:37;;;;;;;3.72;1.55;;;17.60;99.90;;;;;;4954011;28;20976;-88
2022/09/07 04:43:13;;;;;;;3.55;1.63;;;17.30;99.90;;;;;;4948457;28;20042;-90
2022/09/07 04:45:44;;;;;;;3.95;2.22;;;17.00;99.90;;;;;;4932879;28;20149;-89
2022/09/07 04:48:20;;;;;;;3.65;2.00;;;17.60;99.90;;;;;;4950113;28;20358;-89
2022/09/07 04:50:51;;;;;;;;;;;17.60;99.90;;;;;;4935945;28;20058;-89
2022/09/07 04:53:32;;;;;;;;;;;;;;;;;;;;;
2022/09/07 04:56:20;;;;;;;3.40;2.15;;;17.50;99.90;;;;;;4952175;28;20042;-89
2022/09/07 04:59:09;;;;;;;5.60;2.45;;;17.50;99.90;;;;;;4953411;28;20495;-88
2022/09/07 05:01:39;;;;;;;4.10;2.53;;;17.50;99.90;;;;;;4937134;28;20508;-87
2022/09/07 05:04:36;;;;;;;7.85;2.70;;;17.50;99.90;;;;;;4936677;28;20115;-87
2022/09/07 05:07:15;;;;;;;3.58;2.25;;;17.50;99.90;;;;;;4945312;28;20046;-88
2022/09/07 05:09:46;;;;;;;5.03;2.33;;;17.50;99.90;;;;;;4952724;28;20177;-88
2022/09/07 05:12:17;;;;;;;6.22;2.67;;;17.50;99.90;;;;;;4932268;28;20042;-86
2022/09/07 05:15:22;;;;;;;4.80;2.70;;;17.50;99.90;;;;;;4935507;28;20081;-88
2022/09/07 05:17:49;;;;;;;4.05;2.80;;;17.50;99.90;;;;;;4935903;28;20058;-87
2022/09/07 05:20:18;;;;;;;5.57;2.85;;;17.40;99.90;;;;;;4929357;28;20047;-87
2022/09/07 05:22:45;;;;;;;4.85;2.90;;;17.40;99.90;;;;;;4945806;28;20066;-87
2022/09/07 05:25:13;;;;;;;8.57;2.92;;;17.40;99.90;;;;;;4929505;28;20138;-86
2022/09/07 05:27:39;;;;;;;5.03;2.60;;;17.40;99.90;;;;;;4944474;28;20129;-86
2022/09/07 05:30:08;;;;;;;7.32;3.00;;;17.40;99.90;;;;;;4946580;28;20360;-87
2022/09/07 05:32:34;;;;;;;7.35;3.45;;;17.40;99.90;;;;;;4945884;28;20157;-87
2022/09/07 05:34:59;;;;;;;6.25;2.70;;;17.40;99.90;;;;;;4960835;28;20049;-87
2022/09/07 05:37:26;;;;;;;5.00;3.03;;;17.40;99.90;;;;;;4927642;28;20102;-87
2022/09/07 05:39:55;;;;;;;6.00;3.28;;;16.70;99.90;;;;;;4925792;28;20470;-87
2022/09/07 05:42:39;;;;;;;6.60;3.15;;;17.40;99.90;;;;;;4916107;28;20062;-87
2022/09/07 05:45:05;;;;;;;6.88;3.40;;;17.40;99.90;;;;;;4942305;28;20046;-85
2022/09/07 05:47:36;;;;;;;6.57;3.20;;;17.50;99.90;;;;;;4934010;28;20046;-90
2022/09/07 05:53:50;;;;;;;4.78;3.40;;;17.50;99.90;;;;;;4920440;28;20086;-88
2022/09/07 05:56:16;;;;;;;7.57;3.20;;;17.50;99.90;;;;;;4944561;28;20047;-87
2022/09/07 05:58:49;;;;;;;4.80;3.00;;;17.50;99.90;;;;;;4931654;28;20050;-88
2022/09/07 06:01:15;;;;;;;4.45;3.10;;;17.50;99.90;;;;;;4927259;28;20047;-88
2022/09/07 06:03:45;;;;;;;6.40;2.80;;;17.50;99.90;;;;;;4928905;28;20052;-87
2022/09/07 06:06:21;;;;;;;6.53;3.35;;;17.80;99.90;;;;;;4946159;28;20222;-87
2022/09/07 06:09:16;;;;;;;5.25;3.28;;;17.60;99.90;;;;;;4949617;28;20057;-88
2022/09/07 06:12:30;;;;;;;;;;;;;;;;;;;;;
2022/09/07 06:15:25;;;;;;;8.75;4.00;;;17.70;99.90;;;;;;4948644;28;20142;-88
2022/09/07 06:18:11;;;;;;;6.15;3.28;;;17.70;99.90;;;;;;4934796;29;20090;-89
2022/09/07 06:20:37;;;;;;;;;;;17.70;99.90;;;;;;4914852;29;20400;-88
2022/09/07 06:23:25;;;;;;;5.35;3.50;;;17.70;99.90;;;;;;4947707;28;19922;-87
2022/09/07 06:26:30;;;;;;;7.53;2.83;;;17.70;99.90;;;;;;4922259;28;20050;-89
2022/09/07 06:29:31;;;;;;;;;;;;;;;;;;;;;
2022/09/07 06:32:35;;;;;;;5.72;3.00;;;17.90;99.90;;;;;;4949982;28;20423;-88
2022/09/07 06:35:07;;;;;;;5.50;3.50;;;17.20;99.90;;;;;;4938065;28;20058;-86
2022/09/07 06:37:35;;;;;;;5.40;2.95;;;17.90;99.90;;;;;;4949939;29;20350;-85
2022/09/07 06:40:06;;;;;;;7.88;3.53;;;18.00;99.90;;;;;;4945462;28;20046;-83
2022/09/07 06:42:35;;;;;;;7.70;3.28;;;18.00;99.90;;;;;;4934558;28;20054;-83
2022/09/07 06:45:01;;;;;;;7.65;2.70;;;18.10;99.90;;;;;;4929427;29;20106;-84
2022/09/07 06:47:27;;;;;;;8.38;3.17;;;18.20;99.90;;;;;;4935792;29;20056;-84
2022/09/07 06:49:53;;;;;;;6.47;2.40;;;18.20;99.90;;;;;;4945052;29;20047;-84
2022/09/07 06:52:18;;;;;;;5.70;2.63;;;18.30;99.90;;;;;;4927943;29;20437;-84
2022/09/07 06:54:44;;;;;;;9.93;3.17;;;18.40;99.90;;;;;;4944329;28;20043;-84
2022/09/07 06:57:10;;;;;;;7.57;2.60;;;18.50;99.90;;;;;;4928626;29;20492;-84
2022/09/07 06:59:38;;;;;;;7.57;2.80;;;18.50;99.90;;;;;;4928173;29;21056;-84
2022/09/07 07:02:05;;;;;;;6.25;3.22;;;18.60;99.90;;;;;;4911649;29;20055;-84
2022/09/07 07:04:31;;;;;;;4.45;2.55;;;18.70;99.90;;;;;;4928426;28;21046;-83
2022/09/07 07:06:57;;;;;;;3.83;2.05;;;18.80;99.90;;;;;;4946537;28;20055;-84
2022/09/07 07:09:23;;;;;;;5.95;2.83;;;18.90;99.90;;;;;;4928496;28;20489;-83
2022/09/07 07:11:49;;;;;;;3.30;2.33;;;18.90;99.90;;;;;;4933301;29;20091;-84
2022/09/07 07:14:17;;;;;;;4.85;2.60;;;19.00;99.90;;;;;;4928277;28;20526;-85
2022/09/07 07:16:53;;;;;;;4.97;2.90;;;19.10;99.90;;;;;;4942969;28;20078;-85
2022/09/07 07:19:19;;;;;;;4.53;2.80;;;18.80;99.90;;;;;;4945583;28;20111;-86
2022/09/07 07:21:45;;;;;;;6.03;2.65;;;19.20;99.90;;;;;;4946435;29;20071;-87
2022/09/07 07:24:11;;;;;;;4.68;2.75;;;19.30;99.90;;;;;;4931746;29;20099;-85
2022/09/07 07:26:47;;;;;;;3.50;2.50;;;19.30;99.90;;;;;;4919494;28;20122;-87
2022/09/07 07:29:20;;;;;;;7.80;2.95;;;19.40;99.90;;;;;;4949015;29;20054;-86
2022/09/07 07:31:49;;;;;;;4.03;2.50;;;19.50;99.90;;;;;;4933898;29;20039;-86
2022/09/07 07:34:34;;;;;;;3.75;2.60;;;20.30;99.90;;;;;;4950892;28;20053;-87
2022/09/07 07:37:03;;;;;;;3.85;3.00;;;19.60;99.90;;;;;;4932869;29;20067;-85
2022/09/07 07:39:29;;;;;;;3.42;2.60;;;19.70;99.90;;;;;;4931588;29;20050;-85
2022/09/07 07:42:13;;;;;;;6.10;2.90;;;19.70;99.90;;;;;;4931344;29;20055;-86
2022/09/07 07:44:41;;;;;;;5.68;3.25;;;19.90;99.90;;;;;;4937891;29;20054;-86
2022/09/07 07:47:07;;;;;;;4.13;3.00;;;19.90;99.90;;;;;;4931805;29;20745;-85
2022/09/07 07:49:33;;;;;;;5.20;3.38;;;19.90;99.90;;;;;;4927090;29;20047;-87
2022/09/07 07:52:31;;;;;;;;;;;;;;;;;;;;;
2022/09/07 07:55:08;;;;;;;5.20;3.13;;;19.90;99.90;;;;;;4952425;28;20074;-87
2022/09/07 07:57:54;;;;;;;4.40;3.25;;;19.90;99.90;;;;;;4965058;28;20065;-86
2022/09/07 08:00:25;;;;;;;4.15;2.97;;;19.90;99.90;;;;;;4941905;28;20050;-87
2022/09/07 08:03:09;;;;;;;;;;;;;;;;;;;;;
2022/09/07 08:05:43;;;;;;;5.38;3.70;;;20.20;99.90;;;;;;4941370;28;20169;-86
2022/09/07 08:08:18;;;;;;;6.13;3.00;;;19.50;99.90;;;;;;4926722;29;20051;-87
2022/09/07 08:10:46;;;;;;;5.53;3.03;;;20.50;99.90;;;;;;4947079;29;20130;-85
2022/09/07 08:13:11;;;;;;;4.38;3.10;;;20.70;99.90;;;;;;4942648;28;20126;-86
2022/09/07 08:15:44;;;;;;;5.00;3.00;;;20.20;99.90;;;;;;4947290;28;20134;-87
2022/09/07 08:18:14;;;;;;;4.68;3.20;;;21.00;99.90;;;;;;4936961;28;20077;-86
2022/09/07 08:20:41;;;;;;;4.57;3.42;;;21.20;99.90;;;;;;4947364;28;20045;-86
2022/09/07 08:23:07;;;;;;;5.40;3.42;;;21.30;99.90;;;;;;4929387;28;20503;-86
2022/09/07 08:25:52;;;;;;;4.43;3.03;;;21.40;99.90;;;;;;4930383;28;20050;-85
2022/09/07 08:28:24;;;;;;;4.35;3.10;;;21.70;99.90;;;;;;4937840;28;20054;-87
2022/09/07 08:30:50;;;;;;;5.65;3.33;;;21.80;99.90;;;;;;4945294;28;20045;-87
2022/09/07 08:33:17;;;;;;;4.65;2.90;;;21.90;99.90;;;;;;4931786;28;20055;-86
2022/09/07 08:35:58;;;;;;;4.57;3.00;;;21.30;99.90;;;;;;4945117;28;20211;-87
2022/09/07 08:38:32;;;;;;;4.05;2.80;;;22.10;99.90;;;;;;4946518;28;20084;-86
2022/09/07 08:41:02;;;;;;;4.20;2.60;;;22.00;99.90;;;;;;4947040;28;20082;-87
2022/09/07 08:43:51;;;;;;;5.05;2.60;;;22.10;99.90;;;;;;4931968;28;20065;-87
2022/09/07 08:46:20;;;;;;;3.55;2.58;;;22.40;99.90;;;;;;4936184;28;20499;-87
2022/09/07 08:48:49;;;;;;;3.22;2.35;;;22.50;99.90;;;;;;4930611;28;20619;-87
2022/09/07 08:51:40;;;;;;;4.13;2.20;;;22.60;99.90;;;;;;4933420;28;20492;-88
2022/09/07 08:54:12;;;;;;;3.20;1.92;;;22.00;99.90;;;;;;4934937;28;20050;-88
2022/09/07 08:56:44;;;;;;;2.13;1.25;;;23.00;99.90;;;;;;4934300;28;20059;-88
2022/09/07 08:59:39;;;;;;;4.72;1.90;;;23.00;99.90;;;;;;4951385;28;20059;-86
2022/09/07 09:02:26;;;;;;;2.92;1.90;;;23.20;99.90;;;;;;4932818;28;20598;-87
2022/09/07 09:05:01;;;;;;;;;;;;;;;;;;;;;
2022/09/07 09:07:42;;;;;;;3.03;1.60;;;23.30;99.90;;;;;;4945357;28;20047;-85
2022/09/07 09:10:26;;;;;;;4.10;2.15;;;23.50;99.90;;;;;;4929620;28;20102;-86
2022/09/07 09:13:11;;;;;;;4.18;1.88;;;23.60;99.90;;;;;;4949180;28;20125;-87
2022/09/07 09:16:08;;;;;;;3.42;1.50;;;23.80;99.90;;;;;;4945453;28;20050;-87
2022/09/07 09:18:51;;;;;;;2.80;1.63;;;23.70;99.90;;;;;;4949896;28;20051;-87
2022/09/07 09:21:18;;;;;;;6.72;1.52;;;23.90;99.90;;;;;;4943509;28;20102;-87
2022/09/07 09:23:50;;;;;;;3.15;1.48;;;23.90;99.90;;;;;;4917226;28;20091;-86
2022/09/07 09:26:32;;;;;;;2.55;1.30;;;24.00;99.90;;;;;;4952517;28;20049;-86
2022/09/07 09:29:11;;;;;;;2.40;1.67;;;24.00;99.90;;;;;;4961962;28;20054;-87
2022/09/07 09:31:38;;;;;;;2.65;1.50;;;24.10;99.90;;;;;;4936625;28;20062;-88
2022/09/07 09:34:13;;;;;;;2.72;1.20;;;23.20;99.90;;;;;;4934850;28;20460;-88
2022/09/07 09:36:51;;;;;;;1.85;1.20;;;24.10;99.90;;;;;;4951950;28;20051;-90
2022/09/07 09:39:32;;;;;;;3.03;1.20;;;24.10;99.90;;;;;;4950324;28;20046;-87
2022/09/07 09:42:08;;;;;;;2.05;1.00;;;23.90;99.90;;;;;;4936030;28;20042;-86
2022/09/07 09:44:38;;;;;;;3.03;1.15;;;24.00;99.90;;;;;;4951576;28;20569;-86
2022/09/07 09:47:26;;;;;;;3.58;1.13;;;24.10;99.90;;;;;;4931216;28;20050;-88
2022/09/07 09:49:53;;;;;;;2.67;1.08;;;24.40;99.90;;;;;;4952979;28;20055;-88
2022/09/07 09:52:20;;;;;;;3.03;1.10;;;24.10;99.90;;;;;;4935764;28;20051;-87
2022/09/07 09:54:59;;;;;;;2.40;1.30;;;24.00;99.90;;;;;;4947210;28;20476;-87
2022/09/07 09:57:49;;;;;;;2.58;1.30;;;24.00;99.90;;;;;;4934040;28;20046;-88
2022/09/07 10:00:20;;;;;;;1.50;0.80;;;24.20;99.90;;;;;;4930198;28;20108;-88
2022/09/07 10:02:59;;;;;;;2.85;1.27;;;24.30;99.90;;;;;;4946998;28;20082;-88
2022/09/07 10:05:34;;;;;;;2.47;0.95;;;24.40;99.90;;;;;;4947945;28;20051;-87
2022/09/07 10:08:01;;;;;;;3.15;1.20;;;24.40;99.90;;;;;;4938718;28;20050;-89
2022/09/07 10:10:32;;;;;;;2.17;1.00;;;24.50;99.90;;;;;;4932496;28;20165;-88
2022/09/07 10:12:58;;;;;;;2.70;0.98;;;24.30;99.90;;;;;;4951938;28;20078;-88
2022/09/07 10:15:35;;;;;;;2.72;1.20;;;24.50;99.90;;;;;;4918035;28;20563;-88
2022/09/07 10:18:05;;;;;;;2.88;1.10;;;24.70;99.90;;;;;;4945736;28;20062;-89
2022/09/07 10:20:37;;;;;;;3.03;1.20;;;24.90;99.90;;;;;;4928583;28;20059;-83
2022/09/07 10:23:13;;;;;;;2.45;1.30;;;25.00;99.90;;;;;;4928670;28;20055;-82
2022/09/07 10:25:44;;;;;;;2.25;1.08;;;25.10;99.90;;;;;;4946390;28;20110;-86
2022/09/07 10:28:20;;;;;;;2.15;0.93;;;25.30;99.90;;;;;;4929648;28;20077;-84
2022/09/07 10:31:19;;;;;;;2.92;1.23;;;25.30;99.90;;;;;;4927344;28;20058;-83
2022/09/07 10:34:18;;;;;;;1.60;0.90;;;25.50;99.90;;;;;;4947770;28;20378;-84
2022/09/07 10:37:10;;;;;;;5.03;1.30;;;25.70;99.90;;;;;;4931602;28;20113;-88
2022/09/07 10:40:09;;;;;;;2.08;1.08;;;25.90;99.90;;;;;;4930604;28;20058;-89
2022/09/07 10:42:45;;;;;;;2.88;1.00;;;26.20;99.90;;;;;;4946018;28;20398;-84
2022/09/07 10:45:22;;;;;;;2.00;0.85;;;26.40;99.90;;;;;;4930519;28;20066;-86
2022/09/07 10:48:02;;;;;;;2.10;0.80;;;26.60;99.90;;;;;;4931745;28;20615;-86
2022/09/07 10:50:43;;;;;;;2.83;1.10;;;26.60;99.90;;;;;;4936166;28;20054;-86
2022/09/07 10:53:38;;;;;;;3.47;1.00;;;26.50;99.90;;;;;;4930853;28;20054;-86
2022/09/07 10:56:18;;;;;;;1.92;0.77;;;26.40;99.90;;;;;;4930677;28;20038;-85
2022/09/07 10:59:01;;;;;;;3.22;1.00;;;26.40;99.90;;;;;;4944513;28;20062;-86
2022/09/07 11:01:38;;;;;;;3.30;1.25;;;26.30;99.90;;;;;;4952839;28;20057;-85
2022/09/07 11:04:26;;;;;;;1.70;1.00;;;26.20;99.90;;;;;;4931818;28;20054;-84
2022/09/07 11:07:00;;;;;;;2.22;1.00;;;26.10;99.90;;;;;;4968932;28;20064;-86
2022/09/07 11:09:47;;;;;;;2.20;0.80;;;26.20;99.90;;;;;;4947834;28;20065;-86
2022/09/07 11:12:34;;;;;;;1.13;0.70;;;26.60;99.90;;;;;;4939687;28;20252;-87
2022/09/07 11:15:12;;;;;;;2.78;1.13;;;26.60;99.90;;;;;;4934792;28;20137;-83
2022/09/07 11:18:06;;;;;;;3.65;1.20;;;26.40;99.90;;;;;;4913728;29;20067;-85
2022/09/07 11:20:56;;;;;;;3.67;1.48;;;26.80;99.90;;;;;;4927612;29;20051;-86
2022/09/07 11:23:42;;;;;;;3.10;1.17;;;26.80;99.90;;;;;;4909167;29;20059;-87
2022/09/07 11:26:27;;;;;;;2.75;1.50;;;26.70;99.90;;;;;;4931239;29;20036;-90
2022/09/07 11:29:05;;;;;;;2.60;1.10;;;26.10;99.90;;;;;;4911829;29;20251;-86
2022/09/07 11:31:40;;;;;;;3.28;1.40;;;26.10;99.90;;;;;;4908765;29;20472;-86
2022/09/07 11:34:18;;;;;;;2.95;1.65;;;25.10;99.90;;;;;;4914734;29;20059;-86
2022/09/07 11:37:24;;;;;;;3.38;1.35;;;25.50;99.90;;;;;;4921224;29;20043;-86
2022/09/07 11:40:39;;;;;;;2.70;1.50;;;25.60;99.90;;;;;;4909920;29;20047;-90
2022/09/07 11:43:35;;;;;;;2.70;1.67;;;25.90;99.90;;;;;;4916530;29;20099;-92
2022/09/07 11:46:45;;;;;;;2.08;1.50;;;26.10;99.90;;;;;;4931276;29;20126;-90
2022/09/07 11:49:19;;;;;;;;;;;26.40;99.90;;;;;;4912829;29;20063;-90
2022/09/07 11:52:18;;;;;;;2.75;1.65;;;26.30;99.90;;;;;;4927335;29;19927;-92
2022/09/07 11:55:45;;;;;;;3.58;1.80;;;26.20;99.90;;;;;;4926724;29;20058;-91
2022/09/07 11:59:10;;;;;;;3.20;2.08;;;26.10;99.90;;;;;;4882817;29;20421;-91
2022/09/07 12:02:18;;;;;;;3.33;2.38;;;25.80;99.90;;;;;;4932846;29;20083;-91
2022/09/07 12:05:19;;;;;;;2.60;2.13;;;25.80;99.90;;;;;;4932527;29;20051;-92
2022/09/07 12:08:05;;;;;;;3.10;2.47;;;25.90;99.90;;;;;;4918669;29;20086;-92
2022/09/07 12:10:46;;;;;;;4.15;2.67;;;26.50;99.90;;;;;;4914966;29;20422;-92
2022/09/07 12:13:41;;;;;;;4.63;2.90;;;26.80;99.90;;;;;;4909968;29;20505;-91
2022/09/07 12:16:09;;;;;;;3.87;3.20;;;27.00;99.90;;;;;;4944652;28;20059;-92
2022/09/07 12:19:13;;;;;;;4.80;2.70;;;27.20;99.90;;;;;;4968618;28;20086;-92
2022/09/07 12:22:15;;;;;;;4.03;2.78;;;27.40;99.90;;;;;;4929622;29;20113;-92
2022/09/07 12:24:53;;;;;;;3.92;2.63;;;27.60;99.90;;;;;;4944153;28;20141;-87
2022/09/07 12:27:18;;;;;;;4.60;2.45;;;27.90;99.90;;;;;;4947261;28;20043;-86
2022/09/07 12:29:52;;;;;;;3.15;2.10;;;28.10;99.90;;;;;;4931107;29;20044;-87
2022/09/07 12:32:46;;;;;;;3.28;2.80;;;27.60;99.90;;;;;;4942101;29;20047;-87
2022/09/07 12:35:42;;;;;;;3.47;2.45;;;28.00;99.90;;;;;;4931419;28;20039;-86
2022/09/07 12:38:33;;;;;;;3.95;2.80;;;27.80;99.90;;;;;;4931918;29;20058;-93
2022/09/07 12:41:05;;;;;;;4.90;2.65;;;27.70;99.80;;;;;;4934408;29;20094;-87
2022/09/07 12:43:41;;;;;;;3.45;2.25;;;27.70;99.90;;;;;;4928788;28;20043;-86
2022/09/07 12:46:42;;;;;;;4.22;2.92;;;27.70;99.90;;;;;;4929269;29;20058;-86
2022/09/07 12:49:14;;;;;;;3.42;2.88;;;27.90;99.90;;;;;;4930146;29;20062;-86
2022/09/07 12:51:40;;;;;;;3.38;2.75;;;28.00;99.80;;;;;;4926587;29;20051;-86
2022/09/07 12:54:52;;;;;;;3.97;3.20;;;28.00;99.60;;;;;;4924887;29;20052;-86
2022/09/07 12:57:45;;;;;;;3.53;2.53;;;28.30;99.40;;;;;;4919252;28;20182;-86
2022/09/07 13:00:30;;;;;;;3.30;3.00;;;28.50;99.00;;;;;;4930298;29;20442;-85
2022/09/07 13:03:11;;;;;;;;;;;28.50;98.60;;;;;;4927072;29;20063;-85
2022/09/07 13:05:49;;;;;;;4.03;2.50;;;28.30;99.00;;;;;;4926870;29;20017;-86
2022/09/07 13:08:49;;;;;;;3.85;2.42;;;28.50;98.70;;;;;;4940841;29;20074;-84
2022/09/07 13:11:21;;;;;;;3.72;2.58;;;28.40;98.10;;;;;;4925132;29;20106;-85
2022/09/07 13:14:20;;;;;;;3.05;2.40;;;28.30;98.30;;;;;;4946645;28;20587;-85
2022/09/07 13:16:47;;;;;;;4.03;2.03;;;28.30;98.00;;;;;;4927489;28;20062;-86
2022/09/07 13:19:34;;;;;;;3.47;3.10;;;28.30;98.00;;;;;;4948014;28;20066;-85
2022/09/07 13:22:03;;;;;;;3.55;2.53;;;28.50;97.60;;;;;;4930101;28;20043;-84
2022/09/07 13:24:46;;;;;;;3.15;2.30;;;28.70;97.60;;;;;;4946586;28;20050;-85
2022/09/07 13:27:24;;;;;;;3.55;2.22;;;28.90;97.60;;;;;;4933368;29;20039;-85
2022/09/07 13:29:58;;;;;;;3.38;2.60;;;29.00;97.10;;;;;;4934004;29;20051;-85
2022/09/07 13:32:25;;;;;;;3.50;2.50;;;29.00;96.90;;;;;;4949143;28;20054;-86
2022/09/07 13:34:54;;;;;;;3.38;2.40;;;28.80;97.20;;;;;;4944756;28;20047;-86
2022/09/07 13:37:22;;;;;;;3.08;2.38;;;28.70;97.00;;;;;;4927475;29;20059;-85
2022/09/07 13:39:53;;;;;;;3.65;2.00;;;28.70;97.20;;;;;;4962214;28;20146;-85
2022/09/07 13:42:31;;;;;;;2.97;2.30;;;29.00;97.10;;;;;;4934676;29;20506;-86
2022/09/07 13:45:04;;;;;;;4.05;2.28;;;29.00;96.50;;;;;;4933192;29;20098;-86
2022/09/07 13:48:24;;;;;;;3.53;2.30;;;29.20;96.40;;;;;;4950644;28;20146;-85
2022/09/07 13:51:11;;;;;;;4.00;2.40;;;29.20;96.60;;;;;;4935271;28;20058;-85
2022/09/07 13:53:58;;;;;;;2.55;2.00;;;29.10;96.70;;;;;;4950539;28;20118;-85